Terminal Aerodrome Forecast
Issued by NWS Charleston, WV

Current Version | Previous Version | Graphics & Text | Print | Product List | Glossary On
Versions: 1 2 3 4 5 6 7 8 9 10 11 12 13 14 15 16 17 18 19 20 21 22 23 24 25 26 27 28 29 30 31 32 33 34 35 36 37 38
000
FTUS41 KRLX 190700 AAA
TAFHTS
TAF AMD
KHTS 190759Z 1908/2006 00000KT 1SM RA BR OVC008
     FM191200 15006KT 4SM SHRA BR OVC010
     FM191900 16007KT P6SM BKN020
     FM192300 15005KT P6SM BKN035
     FM200500 00000KT 6SM BR BKN030=

USA.gov is the U.S. government's official web portal to all federal, state and local government web resources and services.